Wetterdaten: Woche 09.06.14 - 15.06.14 (KW24)
Datum Zeit Temperatur Luftfeuchte Luftdruck Niederschlag Windrichtung Sonnenschein Solar Wind
09.06.2014 00:00 19,9 C 66 % 1015,0 hPa 0,0 l/m W-SW 0,00 h 0 W/m 2,5 km/h (1 Bft)
09.06.2014 01:00 18,7 C 71 % 1015,0 hPa 0,0 l/m W-SW 0,00 h 0 W/m 2,1 km/h (1 Bft)
09.06.2014 02:00 17,1 C 78 % 1015,1 hPa 0,0 l/m N 0,00 h 0 W/m 0,4 km/h (0 Bft)
09.06.2014 03:00 15,8 C 84 % 1015,0 hPa 0,0 l/m N 0,00 h 0 W/m 0,3 km/h (0 Bft)
09.06.2014 04:00 15,3 C 85 % 1015,0 hPa 0,0 l/m N 0,00 h 0 W/m 0,0 km/h (0 Bft)
09.06.2014 05:00 14,4 C 89 % 1014,9 hPa 0,0 l/m N 0,00 h 10 W/m 0,0 km/h (0 Bft)
09.06.2014 06:00 15,2 C 87 % 1015,1 hPa 0,0 l/m N 0,00 h 57 W/m 0,5 km/h (0 Bft)
09.06.2014 07:00 18,2 C 78 % 1015,2 hPa 0,0 l/m N 0,83 h 194 W/m 0,1 km/h (0 Bft)
09.06.2014 08:00 21,5 C 68 % 1015,3 hPa 0,0 l/m W-SW 1,00 h 357 W/m 3,5 km/h (1 Bft)
09.06.2014 09:00 23,7 C 58 % 1015,3 hPa 0,0 l/m W-SW 1,00 h 518 W/m 5,7 km/h (1 Bft)
09.06.2014 10:00 26,0 C 54 % 1015,2 hPa 0,0 l/m W-SW 1,00 h 658 W/m 4,7 km/h (1 Bft)
09.06.2014 11:00 28,7 C 45 % 1014,9 hPa 0,0 l/m O-SO 1,00 h 770 W/m 7,1 km/h (2 Bft)
09.06.2014 12:00 30,7 C 37 % 1014,7 hPa 0,0 l/m O 1,00 h 845 W/m 10,2 km/h (2 Bft)
09.06.2014 13:00 31,8 C 34 % 1014,4 hPa 0,0 l/m O-SO 1,00 h 873 W/m 9,2 km/h (2 Bft)
09.06.2014 14:00 33,1 C 32 % 1013,9 hPa 0,0 l/m O-SO 1,00 h 853 W/m 10,7 km/h (2 Bft)
09.06.2014 15:00 34,1 C 30 % 1013,4 hPa 0,0 l/m NO 1,00 h 787 W/m 11,5 km/h (2 Bft)
09.06.2014 16:00 34,6 C 27 % 1012,9 hPa 0,0 l/m O-SO 1,00 h 678 W/m 11,3 km/h (2 Bft)
09.06.2014 17:00 34,4 C 26 % 1012,6 hPa 0,0 l/m O 1,00 h 568 W/m 12,5 km/h (3 Bft)
09.06.2014 18:00 33,9 C 27 % 1012,0 hPa 0,0 l/m O-SO 1,00 h 420 W/m 15,0 km/h (3 Bft)
09.06.2014 19:00 31,8 C 32 % 1012,4 hPa 0,0 l/m O-SO 0,42 h 141 W/m 9,4 km/h (2 Bft)
09.06.2014 20:00 27,3 C 50 % 1012,6 hPa 0,0 l/m N 0,17 h 46 W/m 1,7 km/h (1 Bft)
09.06.2014 21:00 25,4 C 48 % 1013,2 hPa 0,0 l/m SW 0,00 h 7 W/m 8,3 km/h (2 Bft)
09.06.2014 22:00 24,0 C 44 % 1014,0 hPa 0,0 l/m SW 0,00 h 0 W/m 8,6 km/h (2 Bft)
09.06.2014 23:00 23,8 C 44 % 1014,6 hPa 0,0 l/m SW 0,00 h 0 W/m 11,9 km/h (2 Bft)
10.06.2014 00:00 22,3 C 51 % 1014,9 hPa 0,0 l/m SW 0,00 h 0 W/m 4,4 km/h (1 Bft)
10.06.2014 01:00 20,6 C 57 % 1014,9 hPa 0,0 l/m W-SW 0,00 h 0 W/m 2,3 km/h (1 Bft)
10.06.2014 02:00 18,5 C 66 % 1014,3 hPa 0,0 l/m N 0,00 h 0 W/m 0,0 km/h (0 Bft)
10.06.2014 03:00 17,5 C 73 % 1014,1 hPa 0,0 l/m N 0,00 h 0 W/m 0,0 km/h (0 Bft)
10.06.2014 04:00 17,2 C 73 % 1014,0 hPa 0,0 l/m N 0,00 h 0 W/m 0,0 km/h (0 Bft)
10.06.2014 05:00 16,4 C 76 % 1013,6 hPa 0,0 l/m N 0,17 h 18 W/m 0,0 km/h (0 Bft)
10.06.2014 06:00 17,3 C 76 % 1013,7 hPa 0,0 l/m N 0,08 h 66 W/m 0,0 km/h (0 Bft)
10.06.2014 07:00 20,2 C 68 % 1014,1 hPa 0,0 l/m N 0,58 h 188 W/m 1,1 km/h (0 Bft)
10.06.2014 08:00 23,6 C 53 % 1014,4 hPa 0,0 l/m N 0,67 h 348 W/m 3,1 km/h (1 Bft)
10.06.2014 09:00 25,0 C 48 % 1015,1 hPa 0,0 l/m N-NW 0,92 h 493 W/m 9,9 km/h (2 Bft)
10.06.2014 10:00 27,5 C 40 % 1014,9 hPa 0,0 l/m N-NO 1,00 h 626 W/m 9,8 km/h (2 Bft)
10.06.2014 11:00 29,3 C 35 % 1014,8 hPa 0,0 l/m N-NO 1,00 h 766 W/m 8,6 km/h (2 Bft)
10.06.2014 12:00 30,8 C 32 % 1014,6 hPa 0,0 l/m O-SO 1,00 h 853 W/m 10,2 km/h (2 Bft)
10.06.2014 13:00 31,4 C 32 % 1014,4 hPa 0,0 l/m S-SO 1,00 h 878 W/m 9,1 km/h (2 Bft)
10.06.2014 14:00 31,9 C 31 % 1014,2 hPa 0,0 l/m S-SW 1,00 h 862 W/m 11,3 km/h (2 Bft)
10.06.2014 15:00 32,4 C 30 % 1013,6 hPa 0,0 l/m S-SW 1,00 h 800 W/m 8,6 km/h (2 Bft)
10.06.2014 16:00 32,7 C 28 % 1013,1 hPa 0,0 l/m O-SO 1,00 h 697 W/m 10,1 km/h (2 Bft)
10.06.2014 17:00 32,9 C 27 % 1012,8 hPa 0,0 l/m SO 1,00 h 552 W/m 6,6 km/h (2 Bft)
10.06.2014 18:00 31,9 C 30 % 1012,8 hPa 0,0 l/m N-NW 1,00 h 383 W/m 10,5 km/h (2 Bft)
10.06.2014 19:00 28,6 C 41 % 1013,2 hPa 0,0 l/m N 1,00 h 211 W/m 17,4 km/h (3 Bft)
10.06.2014 20:00 26,1 C 48 % 1014,1 hPa 0,0 l/m N 0,25 h 48 W/m 12,2 km/h (2 Bft)
10.06.2014 21:00 24,3 C 54 % 1014,3 hPa 0,0 l/m N-NO 0,17 h 9 W/m 7,0 km/h (2 Bft)
10.06.2014 22:00 22,4 C 61 % 1014,9 hPa 0,0 l/m N 0,00 h 0 W/m 2,4 km/h (1 Bft)
10.06.2014 23:00 20,8 C 67 % 1015,5 hPa 0,0 l/m N 0,00 h 0 W/m 0,9 km/h (0 Bft)
11.06.2014 00:00 20,6 C 67 % 1016,2 hPa 0,0 l/m W-SW 0,00 h 0 W/m 15,4 km/h (3 Bft)
11.06.2014 01:00 19,2 C 81 % 1018,8 hPa 4,6 l/m SW 0,00 h 0 W/m 38,2 km/h (5 Bft)
11.06.2014 02:00 17,0 C 92 % 1019,2 hPa 3,6 l/m W 0,00 h 0 W/m 22,7 km/h (4 Bft)
11.06.2014 03:00 16,5 C 94 % 1019,0 hPa 2,4 l/m N-NW 0,00 h 0 W/m 17,7 km/h (3 Bft)
11.06.2014 04:00 16,2 C 93 % 1018,2 hPa 0,0 l/m N 0,00 h 0 W/m 11,0 km/h (2 Bft)
11.06.2014 05:00 15,6 C 95 % 1017,9 hPa 0,0 l/m S-SW 0,00 h 9 W/m 8,4 km/h (2 Bft)
11.06.2014 06:00 15,5 C 97 % 1017,8 hPa 0,0 l/m S-SW 0,00 h 34 W/m 4,0 km/h (1 Bft)
11.06.2014 07:00 16,2 C 96 % 1018,3 hPa 0,0 l/m N 0,00 h 94 W/m 1,7 km/h (1 Bft)
11.06.2014 08:00 18,3 C 91 % 1018,4 hPa 0,0 l/m NW 0,75 h 343 W/m 5,0 km/h (1 Bft)
11.06.2014 09:00 20,5 C 80 % 1018,2 hPa 0,0 l/m NW 1,00 h 537 W/m 6,1 km/h (2 Bft)
11.06.2014 10:00 22,6 C 70 % 1018,3 hPa 0,0 l/m NW 1,00 h 677 W/m 5,7 km/h (1 Bft)
11.06.2014 11:00 24,3 C 59 % 1018,8 hPa 0,0 l/m NO 1,00 h 788 W/m 11,8 km/h (2 Bft)
11.06.2014 12:00 25,1 C 59 % 1019,0 hPa 0,0 l/m N-NO 1,00 h 859 W/m 13,7 km/h (3 Bft)
11.06.2014 13:00 26,6 C 54 % 1019,1 hPa 0,0 l/m O 1,00 h 904 W/m 13,6 km/h (3 Bft)
11.06.2014 14:00 27,9 C 49 % 1018,9 hPa 0,0 l/m O-NO 1,00 h 882 W/m 15,0 km/h (3 Bft)
11.06.2014 15:00 28,5 C 46 % 1018,6 hPa 0,0 l/m O-SO 0,92 h 789 W/m 15,0 km/h (3 Bft)
11.06.2014 16:00 28,6 C 44 % 1018,9 hPa 0,0 l/m O-NO 0,67 h 582 W/m 12,8 km/h (3 Bft)
11.06.2014 17:00 28,9 C 43 % 1018,7 hPa 0,0 l/m O-NO 1,00 h 485 W/m 11,5 km/h (2 Bft)
11.06.2014 18:00 27,7 C 48 % 1018,6 hPa 0,0 l/m O-SO 0,08 h 164 W/m 7,2 km/h (2 Bft)
11.06.2014 19:00 25,7 C 61 % 1019,3 hPa 0,0 l/m O-SO 0,08 h 73 W/m 3,9 km/h (1 Bft)
11.06.2014 20:00 23,8 C 67 % 1019,6 hPa 0,0 l/m N-NO 0,00 h 33 W/m 11,8 km/h (2 Bft)
11.06.2014 21:00 22,0 C 74 % 1019,8 hPa 0,0 l/m N-NO 0,08 h 8 W/m 4,5 km/h (1 Bft)
11.06.2014 22:00 20,7 C 80 % 1020,8 hPa 0,0 l/m N 0,00 h 0 W/m 4,7 km/h (1 Bft)
11.06.2014 23:00 19,9 C 83 % 1021,0 hPa 0,0 l/m N 0,00 h 0 W/m 5,1 km/h (1 Bft)
12.06.2014 00:00 19,5 C 84 % 1021,0 hPa 0,0 l/m N 0,00 h 0 W/m 5,1 km/h (1 Bft)
12.06.2014 01:00 18,9 C 86 % 1020,8 hPa 0,0 l/m N 0,00 h 0 W/m 6,3 km/h (2 Bft)
12.06.2014 02:00 18,1 C 89 % 1020,5 hPa 0,0 l/m N 0,00 h 0 W/m 5,2 km/h (1 Bft)
12.06.2014 03:00 17,6 C 91 % 1020,3 hPa 0,0 l/m N 0,00 h 0 W/m 6,0 km/h (2 Bft)
12.06.2014 04:00 17,1 C 93 % 1019,9 hPa 0,0 l/m N 0,00 h 0 W/m 5,6 km/h (1 Bft)
12.06.2014 05:00 16,7 C 94 % 1019,9 hPa 0,0 l/m N 0,00 h 7 W/m 4,5 km/h (1 Bft)
12.06.2014 06:00 16,8 C 94 % 1020,1 hPa 0,0 l/m N 0,00 h 54 W/m 5,6 km/h (1 Bft)
12.06.2014 07:00 18,5 C 89 % 1020,1 hPa 0,0 l/m N-NO 0,67 h 181 W/m 8,4 km/h (2 Bft)
12.06.2014 08:00 20,1 C 83 % 1020,1 hPa 0,0 l/m NO 1,00 h 317 W/m 10,4 km/h (2 Bft)
12.06.2014 09:00 21,5 C 79 % 1020,3 hPa 0,0 l/m O-NO 1,00 h 455 W/m 12,4 km/h (3 Bft)
12.06.2014 10:00 23,5 C 72 % 1020,1 hPa 0,0 l/m O-NO 1,00 h 627 W/m 13,3 km/h (3 Bft)
12.06.2014 11:00 24,9 C 66 % 1019,9 hPa 0,0 l/m O-NO 1,00 h 749 W/m 15,8 km/h (3 Bft)
12.06.2014 12:00 26,1 C 60 % 1019,6 hPa 0,0 l/m NO 1,00 h 846 W/m 15,2 km/h (3 Bft)
12.06.2014 13:00 26,6 C 57 % 1019,2 hPa 0,0 l/m O-NO 0,75 h 704 W/m 16,9 km/h (3 Bft)
12.06.2014 14:00 27,5 C 55 % 1018,8 hPa 0,0 l/m N-NO 1,00 h 899 W/m 16,9 km/h (3 Bft)
12.06.2014 15:00 28,0 C 53 % 1018,3 hPa 0,0 l/m O-NO 0,92 h 762 W/m 17,6 km/h (3 Bft)
12.06.2014 16:00 28,0 C 50 % 1017,9 hPa 0,0 l/m NO 0,75 h 583 W/m 15,3 km/h (3 Bft)
12.06.2014 17:00 26,7 C 52 % 1017,5 hPa 0,0 l/m NO 0,25 h 206 W/m 14,8 km/h (3 Bft)
12.06.2014 18:00 25,3 C 58 % 1017,4 hPa 0,0 l/m NO 0,00 h 81 W/m 9,9 km/h (2 Bft)
12.06.2014 19:00 24,6 C 62 % 1017,1 hPa 0,0 l/m NO 0,00 h 40 W/m 7,3 km/h (2 Bft)
12.06.2014 20:00 23,5 C 67 % 1017,3 hPa 0,0 l/m NO 0,00 h 26 W/m 3,2 km/h (1 Bft)
12.06.2014 21:00 20,9 C 80 % 1017,8 hPa 6,2 l/m O-NO 0,00 h 6 W/m 13,5 km/h (3 Bft)
12.06.2014 22:00 18,4 C 92 % 1018,3 hPa 0,2 l/m NO 0,00 h 0 W/m 8,0 km/h (2 Bft)
12.06.2014 23:00 18,0 C 95 % 1017,9 hPa 0,0 l/m NO 0,00 h 0 W/m 4,7 km/h (1 Bft)
13.06.2014 00:00 18,0 C 95 % 1018,6 hPa 0,0 l/m SW 0,00 h 0 W/m 5,9 km/h (2 Bft)
13.06.2014 01:00 17,8 C 91 % 1018,5 hPa 0,0 l/m S-SW 0,00 h 0 W/m 7,5 km/h (2 Bft)
13.06.2014 02:00 16,6 C 91 % 1017,8 hPa 0,0 l/m S-SW 0,00 h 0 W/m 5,6 km/h (1 Bft)
13.06.2014 03:00 15,6 C 94 % 1017,2 hPa 0,0 l/m N 0,00 h 0 W/m 0,8 km/h (0 Bft)
13.06.2014 04:00 15,1 C 96 % 1017,0 hPa 0,0 l/m N 0,00 h 0 W/m 1,2 km/h (1 Bft)
13.06.2014 05:00 14,6 C 97 % 1016,8 hPa 0,0 l/m N 0,00 h 9 W/m 0,1 km/h (0 Bft)
13.06.2014 06:00 14,8 C 98 % 1016,7 hPa 0,0 l/m N 0,00 h 52 W/m 0,0 km/h (0 Bft)
13.06.2014 07:00 16,6 C 95 % 1016,5 hPa 0,0 l/m N 0,58 h 174 W/m 0,0 km/h (0 Bft)
13.06.2014 08:00 18,4 C 88 % 1016,4 hPa 0,0 l/m N-NO 0,83 h 306 W/m 4,8 km/h (1 Bft)
13.06.2014 09:00 19,2 C 83 % 1016,4 hPa 0,0 l/m NO 0,83 h 456 W/m 9,1 km/h (2 Bft)
13.06.2014 10:00 20,1 C 80 % 1016,3 hPa 0,0 l/m NO 0,17 h 322 W/m 7,9 km/h (2 Bft)
13.06.2014 11:00 20,7 C 79 % 1016,3 hPa 0,0 l/m NO 0,00 h 244 W/m 8,6 km/h (2 Bft)
13.06.2014 12:00 22,1 C 72 % 1015,7 hPa 0,0 l/m N-NO 0,50 h 591 W/m 10,7 km/h (2 Bft)
13.06.2014 13:00 23,3 C 65 % 1015,3 hPa 0,0 l/m NO 0,67 h 737 W/m 11,6 km/h (2 Bft)
13.06.2014 14:00 23,9 C 62 % 1014,8 hPa 0,0 l/m N-NO 0,75 h 683 W/m 11,0 km/h (2 Bft)
13.06.2014 15:00 24,5 C 58 % 1014,2 hPa 0,0 l/m NO 0,67 h 638 W/m 15,3 km/h (3 Bft)
13.06.2014 16:00 25,3 C 44 % 1014,0 hPa 0,0 l/m N-NO 0,92 h 650 W/m 21,6 km/h (4 Bft)
13.06.2014 17:00 25,2 C 42 % 1013,5 hPa 0,0 l/m N-NO 1,00 h 560 W/m 19,6 km/h (3 Bft)
13.06.2014 18:00 24,4 C 41 % 1013,2 hPa 0,0 l/m N-NO 1,00 h 395 W/m 19,8 km/h (4 Bft)
13.06.2014 19:00 23,0 C 43 % 1013,3 hPa 0,0 l/m NO 0,83 h 196 W/m 16,5 km/h (3 Bft)
13.06.2014 20:00 21,0 C 52 % 1013,6 hPa 0,0 l/m N-NO 0,17 h 50 W/m 14,5 km/h (3 Bft)
13.06.2014 21:00 18,9 C 61 % 1014,0 hPa 0,0 l/m N-NO 0,00 h 7 W/m 7,5 km/h (2 Bft)
13.06.2014 22:00 17,0 C 68 % 1014,4 hPa 0,0 l/m N-NO 0,00 h 0 W/m 6,6 km/h (2 Bft)
13.06.2014 23:00 15,9 C 70 % 1014,7 hPa 0,0 l/m N 0,00 h 0 W/m 7,2 km/h (2 Bft)
14.06.2014 00:00 14,6 C 75 % 1014,7 hPa 0,0 l/m N 0,00 h 0 W/m 4,1 km/h (1 Bft)
14.06.2014 01:00 14,0 C 76 % 1014,7 hPa 0,0 l/m N 0,00 h 0 W/m 7,5 km/h (2 Bft)
14.06.2014 02:00 13,2 C 79 % 1014,9 hPa 0,0 l/m N-NO 0,00 h 0 W/m 6,1 km/h (2 Bft)
14.06.2014 03:00 12,3 C 83 % 1014,7 hPa 0,0 l/m N-NO 0,00 h 0 W/m 4,0 km/h (1 Bft)
14.06.2014 04:00 11,9 C 84 % 1014,3 hPa 0,0 l/m N 0,00 h 0 W/m 2,0 km/h (1 Bft)
14.06.2014 05:00 11,5 C 87 % 1014,1 hPa 0,0 l/m N 0,00 h 9 W/m 2,1 km/h (1 Bft)
14.06.2014 06:00 11,6 C 88 % 1014,2 hPa 0,0 l/m N-NO 0,00 h 33 W/m 3,6 km/h (1 Bft)
14.06.2014 07:00 12,8 C 85 % 1014,2 hPa 0,0 l/m N-NO 0,25 h 123 W/m 6,1 km/h (2 Bft)
14.06.2014 08:00 15,2 C 74 % 1014,2 hPa 0,0 l/m NO 1,00 h 358 W/m 13,6 km/h (3 Bft)
14.06.2014 09:00 15,7 C 70 % 1014,2 hPa 0,0 l/m O-NO 0,17 h 220 W/m 12,6 km/h (3 Bft)
14.06.2014 10:00 16,3 C 68 % 1014,3 hPa 0,0 l/m O-NO 0,08 h 302 W/m 12,5 km/h (3 Bft)
14.06.2014 11:00 17,1 C 66 % 1014,2 hPa 0,0 l/m O-NO 0,00 h 315 W/m 10,1 km/h (2 Bft)
14.06.2014 12:00 17,5 C 63 % 1014,0 hPa 0,0 l/m NO 0,00 h 226 W/m 12,4 km/h (3 Bft)
14.06.2014 13:00 18,2 C 60 % 1013,9 hPa 0,0 l/m N-NO 0,00 h 341 W/m 13,4 km/h (3 Bft)
14.06.2014 14:00 18,5 C 58 % 1013,7 hPa 0,0 l/m N-NO 0,17 h 358 W/m 16,1 km/h (3 Bft)
14.06.2014 15:00 19,5 C 54 % 1013,4 hPa 0,0 l/m N-NO 0,50 h 503 W/m 20,9 km/h (4 Bft)
14.06.2014 16:00 19,6 C 54 % 1013,2 hPa 0,0 l/m N-NO 0,67 h 602 W/m 20,8 km/h (4 Bft)
14.06.2014 17:00 19,0 C 55 % 1013,1 hPa 0,0 l/m N 0,33 h 340 W/m 18,8 km/h (3 Bft)
14.06.2014 18:00 18,3 C 59 % 1013,0 hPa 0,0 l/m N-NO 0,00 h 140 W/m 15,7 km/h (3 Bft)
14.06.2014 19:00 17,6 C 60 % 1013,2 hPa 0,0 l/m N 0,00 h 98 W/m 18,0 km/h (3 Bft)
14.06.2014 20:00 16,7 C 59 % 1013,9 hPa 0,0 l/m N-NO 0,00 h 38 W/m 15,6 km/h (3 Bft)
14.06.2014 21:00 15,3 C 64 % 1014,4 hPa 0,0 l/m N-NO 0,00 h 8 W/m 10,2 km/h (2 Bft)
14.06.2014 22:00 14,6 C 64 % 1015,3 hPa 0,0 l/m NO 0,00 h 0 W/m 14,2 km/h (3 Bft)
14.06.2014 23:00 13,9 C 63 % 1015,8 hPa 0,0 l/m N-NO 0,00 h 0 W/m 12,9 km/h (3 Bft)
15.06.2014 00:00 13,2 C 65 % 1015,7 hPa 0,0 l/m N-NO 0,00 h 0 W/m 11,6 km/h (2 Bft)
15.06.2014 01:00 12,4 C 67 % 1015,8 hPa 0,0 l/m N-NO 0,00 h 0 W/m 10,3 km/h (2 Bft)
15.06.2014 02:00 12,1 C 69 % 1015,8 hPa 0,0 l/m NO 0,00 h 0 W/m 10,7 km/h (2 Bft)
15.06.2014 03:00 11,9 C 71 % 1015,6 hPa 0,0 l/m N-NO 0,00 h 0 W/m 12,5 km/h (3 Bft)
15.06.2014 04:00 11,6 C 74 % 1015,3 hPa 0,0 l/m N-NO 0,00 h 0 W/m 10,5 km/h (2 Bft)
15.06.2014 05:00 11,0 C 77 % 1015,3 hPa 0,0 l/m NO 0,00 h 9 W/m 10,3 km/h (2 Bft)
15.06.2014 06:00 10,8 C 79 % 1015,5 hPa 0,0 l/m NO 0,00 h 69 W/m 8,4 km/h (2 Bft)
15.06.2014 07:00 11,8 C 76 % 1015,8 hPa 0,0 l/m NO 0,83 h 207 W/m 14,9 km/h (3 Bft)
15.06.2014 08:00 13,5 C 71 % 1015,7 hPa 0,0 l/m O-NO 1,00 h 379 W/m 15,4 km/h (3 Bft)
15.06.2014 09:00 15,3 C 65 % 1015,8 hPa 0,0 l/m NO 1,00 h 539 W/m 16,6 km/h (3 Bft)
15.06.2014 10:00 17,0 C 56 % 1015,7 hPa 0,0 l/m NO 1,00 h 682 W/m 22,6 km/h (4 Bft)
15.06.2014 11:00 18,1 C 54 % 1015,6 hPa 0,0 l/m NO 1,00 h 798 W/m 22,1 km/h (4 Bft)
15.06.2014 12:00 18,9 C 51 % 1015,6 hPa 0,0 l/m O 0,75 h 746 W/m 21,8 km/h (4 Bft)
15.06.2014 13:00 19,6 C 49 % 1015,3 hPa 0,0 l/m NO 0,75 h 860 W/m 24,4 km/h (4 Bft)
15.06.2014 14:00 19,9 C 46 % 1015,0 hPa 0,0 l/m N-NO 0,67 h 695 W/m 23,4 km/h (4 Bft)
15.06.2014 15:00 20,9 C 42 % 1014,8 hPa 0,0 l/m NO 0,75 h 709 W/m 23,0 km/h (4 Bft)
15.06.2014 16:00 21,0 C 39 % 1014,5 hPa 0,0 l/m NO 0,83 h 662 W/m 20,0 km/h (4 Bft)
15.06.2014 17:00 20,9 C 40 % 1014,0 hPa 0,0 l/m NO 0,67 h 436 W/m 19,7 km/h (3 Bft)
15.06.2014 18:00 20,0 C 44 % 1013,9 hPa 0,0 l/m O-NO 0,58 h 278 W/m 19,4 km/h (3 Bft)
15.06.2014 19:00 19,2 C 47 % 1014,2 hPa 0,0 l/m O-NO 0,17 h 80 W/m 18,4 km/h (3 Bft)
15.06.2014 20:00 17,9 C 51 % 1014,6 hPa 0,0 l/m NO 0,08 h 33 W/m 14,1 km/h (3 Bft)
15.06.2014 21:00 16,7 C 58 % 1015,0 hPa 0,0 l/m O-NO 0,08 h 7 W/m 12,5 km/h (3 Bft)
15.06.2014 22:00 15,5 C 62 % 1015,7 hPa 0,0 l/m NO 0,00 h 0 W/m 11,1 km/h (2 Bft)
15.06.2014 23:00 14,7 C 65 % 1015,8 hPa 0,0 l/m NO 0,00 h 0 W/m 13,8 km/h (3 Bft)
Min-Datum _ 15.06.14 09.06.14 09.06.14 - - - - 09.06.14
_ Min-Zeit 06:10 17:05 18:20 - - - - 00:20
Minimum _ 10,5 C 24 % 1011,9 hPa - - - - 0,0 km/h (0 Bft)
Max-Datum _ 09.06.14 13.06.14 12.06.14 12.06.14 - 09.06.14 15.06.14 11.06.14
_ Max-Zeit 16:20 06:00 00:05 21:20 - 07:10 13:15 01:25
Maximum _ 34,8 C 98 % 1021,1 hPa 6,2 l/m - 0,08 h 1078 W/m 53,1 km/h
W-SW (7 Bft)
Durchschnitt _ 20,7 C 65 % 1015,9 hPa #17,0 l/m N-NO #66:25 h 392 W/m 10,0 km/h (2 Bft)